createdAt,value
2023-03-10T00:00:40.536Z,8.23
2023-03-10T00:03:08.944Z,8.30
2023-03-10T00:05:37.779Z,7.43
2023-03-10T00:08:06.065Z,8.23
2023-03-10T00:10:34.153Z,7.87
2023-03-10T00:13:03.386Z,7.83
2023-03-10T00:15:31.707Z,8.30
2023-03-10T00:17:59.603Z,8.57
2023-03-10T00:20:27.753Z,7.50
2023-03-10T00:22:55.683Z,7.07
2023-03-10T00:25:23.843Z,5.93
2023-03-10T00:27:52.602Z,6.87
2023-03-10T00:30:21.957Z,5.83
2023-03-10T00:32:50.955Z,5.57
2023-03-10T00:35:19.254Z,5.27
2023-03-10T00:37:48.542Z,5.50
2023-03-10T00:40:16.587Z,5.00
2023-03-10T00:42:45.096Z,6.20
2023-03-10T00:45:13.019Z,4.80
2023-03-10T00:47:42.187Z,5.33
2023-03-10T00:50:11.639Z,5.57
2023-03-10T00:52:39.489Z,5.97
2023-03-10T00:55:07.774Z,5.10
2023-03-10T00:57:38.357Z,6.00
2023-03-10T01:00:08.182Z,6.80
2023-03-10T01:02:36.074Z,7.13
2023-03-10T01:05:06.913Z,7.97
2023-03-10T01:07:34.756Z,8.10
2023-03-10T01:10:02.899Z,8.03
2023-03-10T01:12:31.162Z,7.43
2023-03-10T01:14:59.004Z,8.10
2023-03-10T01:17:26.877Z,7.00
2023-03-10T01:19:54.754Z,6.47
2023-03-10T01:22:23.985Z,6.23
2023-03-10T01:24:51.895Z,5.70
2023-03-10T01:27:19.772Z,5.50
2023-03-10T01:29:47.651Z,4.90
2023-03-10T01:32:17.926Z,4.90
2023-03-10T01:34:46.071Z,5.43
2023-03-10T01:37:13.962Z,5.40
2023-03-10T01:39:43.185Z,4.80
2023-03-10T01:42:11.051Z,4.50
2023-03-10T01:44:39.415Z,4.67
2023-03-10T01:47:07.700Z,4.67
2023-03-10T01:49:40.543Z,4.57
2023-03-10T01:52:12.902Z,4.70
2023-03-10T01:54:49.689Z,4.00
2023-03-10T01:57:21.853Z,4.00
2023-03-10T01:59:50.717Z,3.73
2023-03-10T02:02:19.338Z,4.30
2023-03-10T02:04:49.545Z,4.17
2023-03-10T02:07:20.149Z,6.30
2023-03-10T02:09:51.697Z,32.93
2023-03-10T02:12:21.570Z,8.63
2023-03-10T02:14:52.451Z,5.83
2023-03-10T02:17:24.307Z,5.40
2023-03-10T02:20:07.165Z,9.10
2023-03-10T02:22:35.281Z,14.53
2023-03-10T02:25:13.999Z,8.67
2023-03-10T02:27:47.913Z,7.17
2023-03-10T02:30:21.363Z,5.73
2023-03-10T02:32:54.527Z,6.23
2023-03-10T02:35:23.053Z,7.33
2023-03-10T02:37:51.518Z,7.97
2023-03-10T02:40:34.035Z,7.57
2023-03-10T02:43:06.678Z,7.80
2023-03-10T02:45:39.035Z,10.23
2023-03-10T02:48:09.134Z,7.37
2023-03-10T02:50:39.699Z,8.27
2023-03-10T02:53:13.132Z,6.60
2023-03-10T02:55:41.278Z,7.73
2023-03-10T02:58:10.924Z,13.13
2023-03-10T03:00:39.305Z,11.47
2023-03-10T03:03:08.075Z,7.60
2023-03-10T03:05:36.032Z,9.80
2023-03-10T03:08:04.025Z,8.33
2023-03-10T03:10:32.434Z,8.40
2023-03-10T03:13:00.980Z,8.37
2023-03-10T03:15:30.630Z,8.73
2023-03-10T03:18:03.203Z,7.30
2023-03-10T03:20:41.062Z,5.77
2023-03-10T03:23:15.394Z,6.20
2023-03-10T03:31:22.532Z,5.53
2023-03-10T03:34:19.041Z,6.37
2023-03-10T03:36:52.488Z,7.03
2023-03-10T03:39:22.868Z,7.57
2023-03-10T03:42:02.565Z,6.63
2023-03-10T03:44:33.735Z,7.37
2023-03-10T03:47:15.866Z,8.20
2023-03-10T03:49:51.187Z,6.40
2023-03-10T03:52:36.742Z,6.07
2023-03-10T03:55:16.711Z,5.27
2023-03-10T03:57:51.925Z,5.40
2023-03-10T04:00:36.484Z,5.67
2023-03-10T04:03:06.253Z,5.43
2023-03-10T04:05:42.083Z,5.20
2023-03-10T04:08:16.148Z,6.80
2023-03-10T04:10:51.701Z,7.77
2023-03-10T04:13:37.147Z,7.50
2023-03-10T04:16:07.700Z,8.93
2023-03-10T04:18:47.559Z,8.57
2023-03-10T04:21:17.530Z,9.87
2023-03-10T04:23:45.532Z,9.13
2023-03-10T04:26:13.395Z,9.90
2023-03-10T04:28:41.386Z,9.20
2023-03-10T04:31:16.149Z,9.50
2023-03-10T04:33:45.682Z,9.97
2023-03-10T04:36:16.231Z,10.43
2023-03-10T04:38:44.194Z,11.57
2023-03-10T04:41:12.333Z,10.60
2023-03-10T04:43:42.676Z,10.47
2023-03-10T04:46:11.432Z,10.53
2023-03-10T04:48:49.466Z,11.27
2023-03-10T04:51:47.367Z,10.90
2023-03-10T04:54:24.395Z,11.07
2023-03-10T04:57:06.893Z,11.40
2023-03-10T04:59:41.795Z,12.27
2023-03-10T05:02:12.178Z,10.60
2023-03-10T05:04:40.732Z,10.43
2023-03-10T05:07:13.553Z,12.13
2023-03-10T05:09:42.595Z,9.73
2023-03-10T05:12:11.855Z,8.07
2023-03-10T05:14:39.833Z,11.80
2023-03-10T05:17:07.996Z,10.03
2023-03-10T05:19:36.500Z,9.53
2023-03-10T05:22:05.438Z,10.43
2023-03-10T05:24:35.099Z,10.70
2023-03-10T05:27:03.617Z,10.43
2023-03-10T05:29:31.749Z,8.73
2023-03-10T05:31:59.659Z,10.63
2023-03-10T05:34:27.842Z,12.17
2023-03-10T05:36:56.424Z,10.23
2023-03-10T05:39:24.802Z,11.27
2023-03-10T05:41:54.061Z,11.50
2023-03-10T05:44:21.930Z,13.83
2023-03-10T05:46:49.831Z,12.87
2023-03-10T05:49:17.792Z,14.77
2023-03-10T05:51:45.754Z,13.27
2023-03-10T05:54:13.701Z,13.93
2023-03-10T05:56:41.546Z,16.13
2023-03-10T05:59:10.847Z,12.67
2023-03-10T06:01:38.772Z,10.90
2023-03-10T06:04:06.727Z,10.40
2023-03-10T06:06:35.135Z,8.43
2023-03-10T06:09:03.027Z,7.80
2023-03-10T06:11:30.989Z,7.73
2023-03-10T06:14:16.481Z,7.90
2023-03-10T06:16:51.414Z,8.77
2023-03-10T06:19:19.372Z,8.17
2023-03-10T06:21:47.246Z,7.23
2023-03-10T06:24:15.730Z,7.10
2023-03-10T06:26:43.804Z,6.83
2023-03-10T06:29:12.963Z,7.40
2023-03-10T06:31:42.335Z,7.07
2023-03-10T06:34:11.863Z,7.43
2023-03-10T06:36:40.460Z,8.80
2023-03-10T06:39:08.436Z,8.57
2023-03-10T06:41:37.237Z,9.90
2023-03-10T06:44:05.489Z,11.83
2023-03-10T06:46:33.333Z,15.43
2023-03-10T06:49:01.299Z,15.63
2023-03-10T06:51:30.588Z,15.70
2023-03-10T06:53:58.415Z,15.93
2023-03-10T06:56:26.272Z,15.10
2023-03-10T06:58:54.085Z,14.80
2023-03-10T07:01:24.743Z,15.23
2023-03-10T07:03:53.151Z,12.60
2023-03-10T07:06:21.169Z,10.80
2023-03-10T07:08:51.346Z,11.10
2023-03-10T07:11:19.695Z,9.43
2023-03-10T07:13:48.042Z,8.87
2023-03-10T07:16:16.208Z,8.87
2023-03-10T07:18:44.560Z,9.77
2023-03-10T07:21:15.992Z,12.33
2023-03-10T07:23:44.280Z,11.30
2023-03-10T07:26:15.630Z,12.60
2023-03-10T07:28:43.610Z,13.43
2023-03-10T07:31:13.874Z,13.67
2023-03-10T07:33:41.854Z,14.03
2023-03-10T07:36:12.415Z,14.67
2023-03-10T07:38:40.831Z,12.63
2023-03-10T07:41:09.478Z,13.53
2023-03-10T07:43:39.259Z,12.57
2023-03-10T07:46:08.638Z,9.77
2023-03-10T07:48:36.604Z,10.13
2023-03-10T07:51:04.915Z,8.90
2023-03-10T07:53:33.201Z,9.10
2023-03-10T07:56:01.158Z,9.90
2023-03-10T07:58:28.988Z,9.90
2023-03-10T08:00:59.409Z,9.80
2023-03-10T08:03:28.872Z,8.73
2023-03-10T08:05:57.656Z,8.30
2023-03-10T08:08:25.660Z,10.47
2023-03-10T08:11:01.785Z,9.40
2023-03-10T08:13:30.047Z,7.47
2023-03-10T08:16:01.358Z,7.80
2023-03-10T08:18:30.503Z,7.80
2023-03-10T08:20:59.456Z,9.27
2023-03-10T08:23:27.390Z,11.63
2023-03-10T08:25:55.273Z,9.13
2023-03-10T08:28:23.146Z,8.83
2023-03-10T08:31:03.701Z,7.93
2023-03-10T08:33:34.197Z,7.93
2023-03-10T08:36:03.868Z,7.70
2023-03-10T08:38:32.084Z,8.80
2023-03-10T08:41:08.693Z,8.00
2023-03-10T08:43:36.654Z,9.07
2023-03-10T08:46:06.693Z,7.60
2023-03-10T08:48:37.823Z,7.03
2023-03-10T08:51:07.387Z,5.93
2023-03-10T08:53:37.460Z,5.30
2023-03-10T08:56:06.133Z,6.00
2023-03-10T08:58:34.633Z,6.57
2023-03-10T09:01:02.601Z,6.73
2023-03-10T09:03:31.893Z,5.37
2023-03-10T09:06:01.312Z,4.70
2023-03-10T09:08:29.216Z,5.30
2023-03-10T09:10:57.120Z,6.18
2023-03-10T09:13:25.393Z,7.03
2023-03-10T09:15:53.426Z,7.20
2023-03-10T09:18:21.593Z,7.32
2023-03-10T09:20:49.576Z,7.43
2023-03-10T09:23:18.947Z,6.82
2023-03-10T09:25:46.848Z,6.88
2023-03-10T09:28:16.416Z,6.82
2023-03-10T09:30:46.266Z,6.90
2023-03-10T09:33:17.859Z,7.35
2023-03-10T09:35:52.795Z,5.80
2023-03-10T09:38:27.121Z,5.40
2023-03-10T09:41:03.577Z,5.72
2023-03-10T09:43:34.635Z,6.25
2023-03-10T09:46:08.083Z,8.98
2023-03-10T09:48:49.452Z,6.80
2023-03-10T09:51:22.344Z,7.40
2023-03-10T09:54:04.742Z,6.60
2023-03-10T09:56:34.302Z,8.10
2023-03-10T09:59:11.143Z,7.67
2023-03-10T10:01:44.318Z,7.63
2023-03-10T10:04:14.700Z,5.93
2023-03-10T10:06:46.607Z,5.83
2023-03-10T10:09:25.370Z,5.80
2023-03-10T10:11:53.268Z,6.90
2023-03-10T10:14:29.268Z,8.27
2023-03-10T10:17:07.905Z,9.83
2023-03-10T10:19:37.523Z,10.33
2023-03-10T10:22:15.356Z,8.30
2023-03-10T10:25:00.874Z,8.00
2023-03-10T10:27:29.793Z,7.10
2023-03-10T10:29:58.575Z,6.30
2023-03-10T10:32:26.719Z,6.30
2023-03-10T10:35:15.056Z,7.07
2023-03-10T10:37:43.700Z,7.70
2023-03-10T10:40:27.583Z,6.13
2023-03-10T10:43:00.851Z,4.97
2023-03-10T10:45:35.803Z,5.13
2023-03-10T10:48:04.673Z,7.00
2023-03-10T10:50:33.912Z,8.50
2023-03-10T10:53:21.850Z,6.53
2023-03-10T10:56:01.864Z,6.03
2023-03-10T10:58:34.181Z,5.30
2023-03-10T11:01:05.942Z,5.67
2023-03-10T11:03:36.969Z,6.10
2023-03-10T11:06:15.812Z,6.60
2023-03-10T11:08:51.330Z,5.77
2023-03-10T11:11:29.411Z,5.83
2023-03-10T11:14:16.412Z,5.50
2023-03-10T11:16:55.113Z,6.43
2023-03-10T11:19:30.988Z,3.77
2023-03-10T11:22:05.661Z,5.50
2023-03-10T11:24:42.677Z,5.30
2023-03-10T11:27:23.926Z,5.40
2023-03-10T11:30:04.893Z,5.30
2023-03-10T11:32:46.231Z,4.87
2023-03-10T11:35:26.254Z,5.87
2023-03-10T11:38:08.426Z,8.13
2023-03-10T11:40:49.511Z,9.23
2023-03-10T11:43:30.232Z,10.27
2023-03-10T11:46:01.741Z,11.90
2023-03-10T11:48:41.877Z,10.07
2023-03-10T11:51:19.185Z,11.87
2023-03-10T11:53:51.389Z,10.50
2023-03-10T11:56:23.362Z,10.50
2023-03-10T11:58:59.509Z,10.40
2023-03-10T12:01:33.922Z,9.57
2023-03-10T12:04:11.032Z,8.93
2023-03-10T12:06:48.481Z,10.17
2023-03-10T12:09:33.035Z,8.77
2023-03-10T12:12:07.254Z,8.70
2023-03-10T12:14:37.693Z,10.27
2023-03-10T12:17:07.217Z,9.03
2023-03-10T12:20:27.053Z,9.03
2023-03-10T12:22:57.203Z,9.47
2023-03-10T12:25:45.855Z,8.43
2023-03-10T12:28:25.658Z,8.00
2023-03-10T12:30:57.529Z,9.83
2023-03-10T12:33:46.855Z,8.90
2023-03-10T12:36:27.479Z,7.30
2023-03-10T12:38:58.687Z,4.37
2023-03-10T12:41:48.518Z,3.40
2023-03-10T12:44:52.470Z,2.20
2023-03-10T12:47:44.839Z,2.00
2023-03-10T12:50:28.200Z,2.77
2023-03-10T12:53:04.215Z,2.30
2023-03-10T12:55:32.152Z,2.70
2023-03-10T12:58:10.932Z,2.20
2023-03-10T13:00:49.282Z,2.13
2023-03-10T13:03:28.748Z,2.33
2023-03-10T13:06:07.851Z,2.30
2023-03-10T13:08:43.779Z,2.23
2023-03-10T13:11:28.494Z,2.30
2023-03-10T13:14:00.810Z,2.20
2023-03-10T13:16:28.757Z,3.23
2023-03-10T13:19:00.482Z,3.77
2023-03-10T13:21:31.550Z,2.63
2023-03-10T13:24:02.646Z,3.40
2023-03-10T13:26:30.875Z,3.13
2023-03-10T13:29:00.574Z,2.93
2023-03-10T13:31:30.362Z,3.33
2023-03-10T13:34:14.290Z,2.70
2023-03-10T13:36:42.384Z,2.37
2023-03-10T13:39:16.474Z,2.30
2023-03-10T13:41:46.986Z,2.53
2023-03-10T13:44:20.053Z,2.50
2023-03-10T13:46:50.970Z,2.90
2023-03-10T13:49:24.633Z,2.77
2023-03-10T13:51:57.858Z,3.07
2023-03-10T13:54:28.828Z,2.67
2023-03-10T13:56:59.919Z,1.90
2023-03-10T13:59:31.138Z,2.10
2023-03-10T14:02:01.834Z,2.73
2023-03-10T14:04:46.341Z,2.37
2023-03-10T14:07:18.430Z,2.60
2023-03-10T14:09:47.993Z,2.50
2023-03-10T14:12:16.622Z,2.10
2023-03-10T14:14:44.655Z,2.30
2023-03-10T14:17:31.495Z,1.80
2023-03-10T14:20:00.719Z,1.90
2023-03-10T14:22:39.253Z,1.80
2023-03-10T14:25:11.385Z,2.10
2023-03-10T14:27:42.201Z,2.13
2023-03-10T14:30:21.077Z,2.00
2023-03-10T14:32:49.414Z,1.83
2023-03-10T14:35:22.031Z,2.37
2023-03-10T14:37:50.218Z,2.20
2023-03-10T14:40:19.800Z,2.10
2023-03-10T14:42:49.325Z,2.50
2023-03-10T14:45:27.121Z,2.67
2023-03-10T14:47:57.495Z,2.63
2023-03-10T14:50:29.135Z,3.37
2023-03-10T14:52:57.124Z,2.93
2023-03-10T14:55:25.538Z,5.37
2023-03-10T14:57:58.077Z,6.70
2023-03-10T15:00:26.418Z,7.13
2023-03-10T15:02:54.658Z,5.43
2023-03-10T15:05:31.934Z,5.03
2023-03-10T15:08:08.469Z,5.33
2023-03-10T15:10:39.422Z,6.20
2023-03-10T15:13:07.533Z,3.93
2023-03-10T15:15:39.491Z,3.80
2023-03-10T15:18:08.165Z,4.43
2023-03-10T15:20:36.167Z,4.13
2023-03-10T15:23:04.615Z,4.13
2023-03-10T15:25:33.896Z,4.60
2023-03-10T15:28:02.088Z,3.37
2023-03-10T15:30:32.966Z,1.00
2023-03-10T15:33:00.914Z,0.77
2023-03-10T15:35:29.822Z,0.87
2023-03-10T15:37:59.031Z,1.10
2023-03-10T15:40:30.091Z,1.10
2023-03-10T15:43:00.042Z,0.80
2023-03-10T15:45:29.627Z,0.70
2023-03-10T15:47:58.249Z,0.63
2023-03-10T15:50:26.645Z,0.80
2023-03-10T15:52:57.088Z,0.97
2023-03-10T15:55:26.291Z,0.83
2023-03-10T15:57:54.594Z,1.37
2023-03-10T16:00:26.118Z,1.30
2023-03-10T16:02:54.848Z,1.40
2023-03-10T16:05:23.413Z,1.60
2023-03-10T16:07:51.768Z,1.27
2023-03-10T16:10:21.799Z,2.60
2023-03-10T16:12:49.829Z,1.80
2023-03-10T16:15:18.553Z,1.80
2023-03-10T16:17:48.219Z,1.20
2023-03-10T16:20:19.118Z,1.37
2023-03-10T16:22:47.370Z,1.33
2023-03-10T16:25:18.293Z,1.60
2023-03-10T16:27:47.483Z,1.70
2023-03-10T16:30:17.569Z,1.70
2023-03-10T16:32:47.594Z,1.20
2023-03-10T16:35:16.297Z,1.27
2023-03-10T16:37:44.832Z,1.90
2023-03-10T16:40:13.830Z,1.73
2023-03-10T16:42:45.658Z,1.00
2023-03-10T16:45:27.885Z,1.00
2023-03-10T16:47:57.992Z,1.60
2023-03-10T16:50:26.149Z,1.63
2023-03-10T16:52:56.944Z,2.17
2023-03-10T16:55:25.003Z,1.80
2023-03-10T16:57:52.906Z,2.53
2023-03-10T17:00:23.000Z,1.97
2023-03-10T17:02:50.959Z,1.97
2023-03-10T17:05:20.249Z,1.73
2023-03-10T17:07:55.636Z,1.57
2023-03-10T17:10:27.378Z,2.03
2023-03-10T17:12:55.255Z,1.70
2023-03-10T17:15:27.295Z,1.77
2023-03-10T17:17:55.252Z,2.03
2023-03-10T17:20:24.658Z,2.23
2023-03-10T17:22:52.525Z,3.10
2023-03-10T17:25:20.773Z,2.60
2023-03-10T17:27:49.426Z,1.83
2023-03-10T17:30:20.002Z,2.67
2023-03-10T17:32:53.358Z,1.90
2023-03-10T17:35:21.908Z,2.77
2023-03-10T17:37:51.321Z,2.97
2023-03-10T17:40:22.965Z,2.67
2023-03-10T17:42:51.020Z,2.30
2023-03-10T17:45:19.759Z,3.27
2023-03-10T17:47:47.746Z,4.83
2023-03-10T17:50:16.006Z,4.87
2023-03-10T17:52:44.164Z,5.27
2023-03-10T17:55:15.789Z,5.87
2023-03-10T17:57:44.125Z,5.27
2023-03-10T18:00:13.412Z,4.77
2023-03-10T18:02:41.676Z,4.77
2023-03-10T18:05:10.880Z,4.47
2023-03-10T18:07:39.049Z,4.70
2023-03-10T18:10:08.772Z,4.20
2023-03-10T18:12:38.441Z,4.03
2023-03-10T18:15:07.667Z,4.17
2023-03-10T18:17:35.601Z,3.13
2023-03-10T18:20:06.205Z,2.27
2023-03-10T18:22:35.007Z,2.40
2023-03-10T18:25:03.132Z,3.33
2023-03-10T18:27:33.271Z,2.00
2023-03-10T18:30:02.972Z,1.93
2023-03-10T18:32:31.224Z,1.90
2023-03-10T18:34:59.702Z,2.30
2023-03-10T18:37:27.781Z,1.77
2023-03-10T18:39:55.890Z,1.77
2023-03-10T18:42:23.821Z,1.53
2023-03-10T18:44:51.718Z,1.73
2023-03-10T18:47:21.429Z,2.13
2023-03-10T18:49:49.773Z,1.70
2023-03-10T18:52:18.409Z,2.00
2023-03-10T18:54:48.667Z,2.60
2023-03-10T18:57:17.109Z,1.87
2023-03-10T18:59:45.190Z,1.70
2023-03-10T19:02:15.065Z,3.00
2023-03-10T19:04:47.846Z,1.90
2023-03-10T19:07:17.470Z,2.43
2023-03-10T19:09:45.618Z,2.00
2023-03-10T19:12:16.060Z,2.37
2023-03-10T19:14:45.418Z,1.83
2023-03-10T19:17:13.272Z,2.27
2023-03-10T19:19:41.164Z,1.90
2023-03-10T19:22:11.181Z,1.67
2023-03-10T19:24:39.000Z,1.70
2023-03-10T19:27:06.934Z,1.57
2023-03-10T19:29:37.397Z,1.87
2023-03-10T19:32:05.343Z,2.30
2023-03-10T19:34:33.668Z,2.67
2023-03-10T19:37:01.881Z,2.10
2023-03-10T19:39:31.165Z,2.00
2023-03-10T19:41:59.205Z,1.73
2023-03-10T19:44:27.679Z,2.47
2023-03-10T19:46:57.154Z,2.37
2023-03-10T19:49:25.231Z,2.67
2023-03-10T19:51:53.277Z,2.60
2023-03-10T19:54:21.422Z,2.40
2023-03-10T19:56:51.030Z,1.80
2023-03-10T19:59:19.066Z,1.70
2023-03-10T20:01:49.152Z,2.30
2023-03-10T20:04:18.524Z,2.37
2023-03-10T20:06:47.233Z,1.70
2023-03-10T20:09:15.615Z,1.40
2023-03-10T20:11:46.880Z,1.43
2023-03-10T20:14:16.153Z,1.77
2023-03-10T20:16:44.106Z,2.03
2023-03-10T20:19:15.895Z,1.63
2023-03-10T20:21:45.940Z,2.17
2023-03-10T20:24:14.520Z,2.73
2023-03-10T20:26:43.985Z,2.40
2023-03-10T20:29:12.628Z,2.60
2023-03-10T20:31:41.963Z,1.93
2023-03-10T20:34:18.918Z,2.37
2023-03-10T20:36:48.364Z,3.27
2023-03-10T20:39:16.316Z,2.27
2023-03-10T20:41:45.116Z,2.77
2023-03-10T20:44:14.385Z,2.50
2023-03-10T20:46:47.446Z,1.60
2023-03-10T20:49:15.312Z,2.30
2023-03-10T20:51:43.253Z,2.73
2023-03-10T20:54:11.501Z,2.13
2023-03-10T20:56:39.629Z,2.50
2023-03-10T20:59:08.234Z,2.27
2023-03-10T21:01:39.762Z,2.23
2023-03-10T21:04:09.543Z,2.13
2023-03-10T21:06:38.216Z,1.73
2023-03-10T21:09:06.933Z,2.33
2023-03-10T21:11:35.483Z,2.57
2023-03-10T21:14:03.555Z,1.73
2023-03-10T21:16:31.758Z,2.10
2023-03-10T21:19:02.059Z,2.10
2023-03-10T21:21:31.710Z,2.00
2023-03-10T21:24:00.383Z,1.43
2023-03-10T21:26:28.968Z,1.10
2023-03-10T21:29:01.065Z,2.00
2023-03-10T21:31:28.927Z,1.70
2023-03-10T21:33:56.816Z,1.30
2023-03-10T21:36:25.135Z,1.37
2023-03-10T21:38:54.434Z,1.70
2023-03-10T21:41:24.931Z,1.47
2023-03-10T21:43:54.251Z,1.40
2023-03-10T21:46:22.412Z,1.73
2023-03-10T21:48:50.303Z,1.40
2023-03-10T21:51:20.739Z,1.80
2023-03-10T21:53:51.115Z,1.80
2023-03-10T21:56:22.701Z,1.67
2023-03-10T21:58:51.142Z,1.80
2023-03-10T22:01:24.387Z,2.20
2023-03-10T22:03:52.313Z,1.87
2023-03-10T22:06:31.671Z,1.67
2023-03-10T22:08:59.706Z,2.60
2023-03-10T22:11:28.973Z,2.90
2023-03-10T22:13:57.279Z,2.30
2023-03-10T22:16:25.322Z,2.03
2023-03-10T22:18:53.262Z,2.17
2023-03-10T22:21:21.652Z,1.80
2023-03-10T22:23:49.478Z,1.53
2023-03-10T22:26:17.332Z,2.27
2023-03-10T22:28:46.562Z,1.53
2023-03-10T22:31:15.818Z,1.90
2023-03-10T22:33:43.748Z,1.40
2023-03-10T22:36:13.980Z,1.60
2023-03-10T22:38:42.059Z,1.23
2023-03-10T22:41:11.909Z,1.13
2023-03-10T22:43:39.817Z,1.73
2023-03-10T22:46:11.010Z,1.83
2023-03-10T22:48:39.132Z,1.50
2023-03-10T22:51:08.331Z,2.30
2023-03-10T22:53:38.119Z,1.57
2023-03-10T22:56:06.579Z,1.60
2023-03-10T22:58:34.754Z,1.90
2023-03-10T23:01:02.736Z,1.67
2023-03-10T23:03:32.090Z,2.30
2023-03-10T23:06:01.914Z,1.80
2023-03-10T23:08:29.909Z,1.77
2023-03-10T23:10:57.849Z,1.73
2023-03-10T23:13:25.708Z,2.10
2023-03-10T23:15:53.572Z,2.20
2023-03-10T23:18:21.503Z,1.20
2023-03-10T23:20:51.321Z,2.03
2023-03-10T23:23:19.302Z,1.73
2023-03-10T23:25:50.950Z,2.10
2023-03-10T23:28:21.664Z,1.50
2023-03-10T23:30:50.921Z,2.07
2023-03-10T23:33:20.699Z,2.03
2023-03-10T23:35:54.169Z,1.70
2023-03-10T23:38:23.858Z,1.93
2023-03-10T23:40:53.064Z,1.40
2023-03-10T23:43:20.987Z,1.70
2023-03-10T23:45:49.657Z,1.60
2023-03-10T23:48:20.138Z,1.80
2023-03-10T23:50:50.344Z,2.00
2023-03-10T23:53:20.692Z,2.33
2023-03-10T23:55:49.088Z,1.73
2023-03-10T23:58:23.948Z,1.90
